sensor_id;sensor_type;location;lat;lon;timestamp;P1;durP1;ratioP1;P2;durP2;ratioP2
66437;SDS011;54537;47.972;11.662;2023-07-29T00:02:15;5.45;;;2.03;;
66437;SDS011;54537;47.972;11.662;2023-07-29T00:04:41;4.70;;;2.20;;
66437;SDS011;54537;47.972;11.662;2023-07-29T00:07:07;4.72;;;2.10;;
66437;SDS011;54537;47.972;11.662;2023-07-29T00:09:34;4.93;;;2.10;;
66437;SDS011;54537;47.972;11.662;2023-07-29T00:12:00;4.80;;;2.10;;
66437;SDS011;54537;47.972;11.662;2023-07-29T00:14:28;6.53;;;2.38;;
66437;SDS011;54537;47.972;11.662;2023-07-29T00:16:55;3.67;;;2.30;;
66437;SDS011;54537;47.972;11.662;2023-07-29T00:19:21;3.97;;;2.10;;
66437;SDS011;54537;47.972;11.662;2023-07-29T00:21:48;3.38;;;1.73;;
66437;SDS011;54537;47.972;11.662;2023-07-29T00:24:15;3.45;;;1.88;;
66437;SDS011;54537;47.972;11.662;2023-07-29T00:26:41;6.03;;;2.00;;
66437;SDS011;54537;47.972;11.662;2023-07-29T00:29:08;5.07;;;1.92;;
66437;SDS011;54537;47.972;11.662;2023-07-29T00:31:35;4.00;;;1.75;;
66437;SDS011;54537;47.972;11.662;2023-07-29T00:34:02;7.45;;;2.20;;
66437;SDS011;54537;47.972;11.662;2023-07-29T00:36:28;5.60;;;2.60;;
66437;SDS011;54537;47.972;11.662;2023-07-29T00:38:55;4.45;;;2.05;;
66437;SDS011;54537;47.972;11.662;2023-07-29T00:41:22;6.30;;;2.10;;
66437;SDS011;54537;47.972;11.662;2023-07-29T00:43:48;4.97;;;2.30;;
66437;SDS011;54537;47.972;11.662;2023-07-29T00:46:15;6.95;;;2.30;;
66437;SDS011;54537;47.972;11.662;2023-07-29T00:48:44;3.47;;;2.03;;
66437;SDS011;54537;47.972;11.662;2023-07-29T00:51:10;4.65;;;2.38;;
66437;SDS011;54537;47.972;11.662;2023-07-29T00:53:37;4.38;;;1.88;;
66437;SDS011;54537;47.972;11.662;2023-07-29T00:56:03;6.35;;;2.50;;
66437;SDS011;54537;47.972;11.662;2023-07-29T00:58:30;4.43;;;2.10;;
66437;SDS011;54537;47.972;11.662;2023-07-29T01:00:57;4.88;;;2.00;;
66437;SDS011;54537;47.972;11.662;2023-07-29T01:03:23;4.60;;;2.30;;
66437;SDS011;54537;47.972;11.662;2023-07-29T01:05:59;5.88;;;2.28;;
66437;SDS011;54537;47.972;11.662;2023-07-29T01:08:33;3.78;;;1.88;;
66437;SDS011;54537;47.972;11.662;2023-07-29T01:11:08;4.55;;;2.03;;
66437;SDS011;54537;47.972;11.662;2023-07-29T01:13:41;5.78;;;1.80;;
66437;SDS011;54537;47.972;11.662;2023-07-29T01:16:12;4.85;;;2.05;;
66437;SDS011;54537;47.972;11.662;2023-07-29T01:18:43;14.45;;;2.58;;
66437;SDS011;54537;47.972;11.662;2023-07-29T01:21:15;4.85;;;2.08;;
66437;SDS011;54537;47.972;11.662;2023-07-29T01:23:43;4.28;;;1.75;;
66437;SDS011;54537;47.972;11.662;2023-07-29T01:26:10;4.53;;;2.30;;
66437;SDS011;54537;47.972;11.662;2023-07-29T01:28:36;9.15;;;2.20;;
66437;SDS011;54537;47.972;11.662;2023-07-29T01:31:06;4.70;;;1.98;;
66437;SDS011;54537;47.972;11.662;2023-07-29T01:33:35;3.45;;;1.90;;
66437;SDS011;54537;47.972;11.662;2023-07-29T01:36:06;4.28;;;1.75;;
66437;SDS011;54537;47.972;11.662;2023-07-29T01:38:35;3.83;;;1.77;;
66437;SDS011;54537;47.972;11.662;2023-07-29T01:41:04;5.38;;;2.10;;
66437;SDS011;54537;47.972;11.662;2023-07-29T01:43:33;3.92;;;1.77;;
66437;SDS011;54537;47.972;11.662;2023-07-29T01:46:00;3.42;;;1.77;;
66437;SDS011;54537;47.972;11.662;2023-07-29T01:48:26;5.63;;;1.77;;
66437;SDS011;54537;47.972;11.662;2023-07-29T01:50:55;4.13;;;1.88;;
66437;SDS011;54537;47.972;11.662;2023-07-29T01:53:22;4.20;;;1.80;;
66437;SDS011;54537;47.972;11.662;2023-07-29T01:55:48;6.05;;;1.85;;
66437;SDS011;54537;47.972;11.662;2023-07-29T01:58:16;7.15;;;1.73;;
66437;SDS011;54537;47.972;11.662;2023-07-29T02:00:43;3.40;;;1.70;;
66437;SDS011;54537;47.972;11.662;2023-07-29T02:03:09;2.95;;;1.58;;
66437;SDS011;54537;47.972;11.662;2023-07-29T02:05:36;4.43;;;2.05;;
66437;SDS011;54537;47.972;11.662;2023-07-29T02:08:02;3.75;;;1.85;;
66437;SDS011;54537;47.972;11.662;2023-07-29T02:10:29;5.65;;;1.50;;
66437;SDS011;54537;47.972;11.662;2023-07-29T02:12:56;3.28;;;1.50;;
66437;SDS011;54537;47.972;11.662;2023-07-29T02:15:23;3.83;;;1.70;;
66437;SDS011;54537;47.972;11.662;2023-07-29T02:17:50;6.35;;;1.73;;
66437;SDS011;54537;47.972;11.662;2023-07-29T02:20:17;4.22;;;1.55;;
66437;SDS011;54537;47.972;11.662;2023-07-29T02:22:44;5.47;;;2.45;;
66437;SDS011;54537;47.972;11.662;2023-07-29T02:25:10;4.40;;;1.67;;
66437;SDS011;54537;47.972;11.662;2023-07-29T02:27:37;4.38;;;1.73;;
66437;SDS011;54537;47.972;11.662;2023-07-29T02:30:03;3.70;;;1.90;;
66437;SDS011;54537;47.972;11.662;2023-07-29T02:32:32;3.38;;;1.58;;
66437;SDS011;54537;47.972;11.662;2023-07-29T02:34:58;3.95;;;1.70;;
66437;SDS011;54537;47.972;11.662;2023-07-29T02:37:25;4.38;;;2.17;;
66437;SDS011;54537;47.972;11.662;2023-07-29T02:39:51;4.72;;;1.92;;
66437;SDS011;54537;47.972;11.662;2023-07-29T02:42:18;4.30;;;1.70;;
66437;SDS011;54537;47.972;11.662;2023-07-29T02:44:44;2.95;;;1.48;;
66437;SDS011;54537;47.972;11.662;2023-07-29T02:47:11;4.32;;;2.05;;
66437;SDS011;54537;47.972;11.662;2023-07-29T02:49:38;4.53;;;1.75;;
66437;SDS011;54537;47.972;11.662;2023-07-29T02:52:05;3.35;;;1.80;;
66437;SDS011;54537;47.972;11.662;2023-07-29T02:54:32;3.45;;;1.63;;
66437;SDS011;54537;47.972;11.662;2023-07-29T02:56:58;4.03;;;1.55;;
66437;SDS011;54537;47.972;11.662;2023-07-29T02:59:25;4.03;;;1.70;;
66437;SDS011;54537;47.972;11.662;2023-07-29T03:01:52;3.42;;;1.50;;
66437;SDS011;54537;47.972;11.662;2023-07-29T03:04:18;3.55;;;1.60;;
66437;SDS011;54537;47.972;11.662;2023-07-29T03:06:46;3.88;;;1.73;;
66437;SDS011;54537;47.972;11.662;2023-07-29T03:09:13;4.63;;;1.85;;
66437;SDS011;54537;47.972;11.662;2023-07-29T03:11:40;3.10;;;1.50;;
66437;SDS011;54537;47.972;11.662;2023-07-29T03:14:06;4.78;;;1.90;;
66437;SDS011;54537;47.972;11.662;2023-07-29T03:16:33;3.63;;;1.42;;
66437;SDS011;54537;47.972;11.662;2023-07-29T03:18:59;4.70;;;1.80;;
66437;SDS011;54537;47.972;11.662;2023-07-29T03:21:26;5.38;;;1.48;;
66437;SDS011;54537;47.972;11.662;2023-07-29T03:23:54;4.18;;;1.73;;
66437;SDS011;54537;47.972;11.662;2023-07-29T03:26:20;5.05;;;1.83;;
66437;SDS011;54537;47.972;11.662;2023-07-29T03:28:47;3.80;;;1.58;;
66437;SDS011;54537;47.972;11.662;2023-07-29T03:31:13;4.80;;;1.67;;
66437;SDS011;54537;47.972;11.662;2023-07-29T03:33:40;3.33;;;1.50;;
66437;SDS011;54537;47.972;11.662;2023-07-29T03:36:06;6.95;;;1.65;;
66437;SDS011;54537;47.972;11.662;2023-07-29T03:38:33;4.70;;;1.73;;
66437;SDS011;54537;47.972;11.662;2023-07-29T03:41:01;9.00;;;2.00;;
66437;SDS011;54537;47.972;11.662;2023-07-29T03:43:28;3.42;;;1.70;;
66437;SDS011;54537;47.972;11.662;2023-07-29T03:45:54;3.17;;;1.63;;
66437;SDS011;54537;47.972;11.662;2023-07-29T03:48:21;4.22;;;1.60;;
66437;SDS011;54537;47.972;11.662;2023-07-29T03:50:47;2.72;;;1.33;;
66437;SDS011;54537;47.972;11.662;2023-07-29T03:53:14;4.55;;;1.75;;
66437;SDS011;54537;47.972;11.662;2023-07-29T03:55:40;3.70;;;1.70;;
66437;SDS011;54537;47.972;11.662;2023-07-29T03:58:08;4.20;;;2.00;;
66437;SDS011;54537;47.972;11.662;2023-07-29T04:00:35;12.05;;;2.13;;
66437;SDS011;54537;47.972;11.662;2023-07-29T04:03:01;4.85;;;1.83;;
66437;SDS011;54537;47.972;11.662;2023-07-29T04:05:28;3.95;;;1.88;;
66437;SDS011;54537;47.972;11.662;2023-07-29T04:07:54;3.42;;;1.63;;
66437;SDS011;54537;47.972;11.662;2023-07-29T04:10:21;6.47;;;1.80;;
66437;SDS011;54537;47.972;11.662;2023-07-29T04:12:47;5.40;;;1.83;;
66437;SDS011;54537;47.972;11.662;2023-07-29T04:15:15;3.10;;;1.67;;
66437;SDS011;54537;47.972;11.662;2023-07-29T04:17:42;5.72;;;1.83;;
66437;SDS011;54537;47.972;11.662;2023-07-29T04:20:09;3.60;;;1.58;;
66437;SDS011;54537;47.972;11.662;2023-07-29T04:22:36;2.67;;;1.52;;
66437;SDS011;54537;47.972;11.662;2023-07-29T04:25:03;2.83;;;1.63;;
66437;SDS011;54537;47.972;11.662;2023-07-29T04:27:31;2.92;;;1.70;;
66437;SDS011;54537;47.972;11.662;2023-07-29T04:29:57;3.85;;;1.50;;
66437;SDS011;54537;47.972;11.662;2023-07-29T04:32:25;4.63;;;1.70;;
66437;SDS011;54537;47.972;11.662;2023-07-29T04:34:51;3.08;;;1.50;;
66437;SDS011;54537;47.972;11.662;2023-07-29T04:37:18;5.20;;;1.63;;
66437;SDS011;54537;47.972;11.662;2023-07-29T04:39:44;3.08;;;1.63;;
66437;SDS011;54537;47.972;11.662;2023-07-29T04:42:11;3.33;;;1.60;;
66437;SDS011;54537;47.972;11.662;2023-07-29T04:44:38;3.10;;;1.65;;
66437;SDS011;54537;47.972;11.662;2023-07-29T04:47:06;5.07;;;1.50;;
66437;SDS011;54537;47.972;11.662;2023-07-29T04:49:34;2.75;;;1.60;;
66437;SDS011;54537;47.972;11.662;2023-07-29T04:52:01;2.60;;;1.30;;
66437;SDS011;54537;47.972;11.662;2023-07-29T04:54:27;2.92;;;1.50;;
66437;SDS011;54537;47.972;11.662;2023-07-29T04:56:54;3.03;;;1.48;;
66437;SDS011;54537;47.972;11.662;2023-07-29T04:59:20;3.33;;;1.52;;
66437;SDS011;54537;47.972;11.662;2023-07-29T05:01:47;3.35;;;1.52;;
66437;SDS011;54537;47.972;11.662;2023-07-29T05:04:13;2.15;;;1.35;;
66437;SDS011;54537;47.972;11.662;2023-07-29T05:06:41;3.10;;;1.42;;
66437;SDS011;54537;47.972;11.662;2023-07-29T05:09:14;2.25;;;1.27;;
66437;SDS011;54537;47.972;11.662;2023-07-29T05:11:41;4.65;;;1.30;;
66437;SDS011;54537;47.972;11.662;2023-07-29T05:14:08;2.03;;;1.40;;
66437;SDS011;54537;47.972;11.662;2023-07-29T05:16:35;3.45;;;1.38;;
66437;SDS011;54537;47.972;11.662;2023-07-29T05:19:01;2.80;;;1.40;;
66437;SDS011;54537;47.972;11.662;2023-07-29T05:21:28;3.03;;;1.30;;
66437;SDS011;54537;47.972;11.662;2023-07-29T05:23:56;3.80;;;1.40;;
66437;SDS011;54537;47.972;11.662;2023-07-29T05:26:23;5.53;;;1.33;;
66437;SDS011;54537;47.972;11.662;2023-07-29T05:28:50;3.33;;;1.23;;
66437;SDS011;54537;47.972;11.662;2023-07-29T05:31:16;2.72;;;1.35;;
66437;SDS011;54537;47.972;11.662;2023-07-29T05:33:43;2.80;;;1.20;;
66437;SDS011;54537;47.972;11.662;2023-07-29T05:36:09;1.65;;;0.90;;
66437;SDS011;54537;47.972;11.662;2023-07-29T05:38:36;2.35;;;1.38;;
66437;SDS011;54537;47.972;11.662;2023-07-29T05:41:04;4.78;;;1.60;;
66437;SDS011;54537;47.972;11.662;2023-07-29T05:43:30;2.65;;;1.55;;
66437;SDS011;54537;47.972;11.662;2023-07-29T05:45:57;3.00;;;1.30;;
66437;SDS011;54537;47.972;11.662;2023-07-29T05:48:23;2.92;;;1.38;;
66437;SDS011;54537;47.972;11.662;2023-07-29T05:50:49;2.25;;;1.27;;
66437;SDS011;54537;47.972;11.662;2023-07-29T05:53:16;1.77;;;1.20;;
66437;SDS011;54537;47.972;11.662;2023-07-29T05:55:42;2.60;;;1.40;;
66437;SDS011;54537;47.972;11.662;2023-07-29T05:58:10;2.00;;;1.00;;
66437;SDS011;54537;47.972;11.662;2023-07-29T06:00:37;2.80;;;1.40;;
66437;SDS011;54537;47.972;11.662;2023-07-29T06:03:03;2.28;;;1.20;;
66437;SDS011;54537;47.972;11.662;2023-07-29T06:05:30;3.78;;;1.48;;
66437;SDS011;54537;47.972;11.662;2023-07-29T06:07:56;1.85;;;1.13;;
66437;SDS011;54537;47.972;11.662;2023-07-29T06:10:23;3.45;;;1.23;;
66437;SDS011;54537;47.972;11.662;2023-07-29T06:12:49;4.38;;;1.38;;
66437;SDS011;54537;47.972;11.662;2023-07-29T06:15:17;3.35;;;1.45;;
66437;SDS011;54537;47.972;11.662;2023-07-29T06:17:46;3.63;;;1.40;;
66437;SDS011;54537;47.972;11.662;2023-07-29T06:20:13;1.98;;;1.30;;
66437;SDS011;54537;47.972;11.662;2023-07-29T06:22:40;2.88;;;1.30;;
66437;SDS011;54537;47.972;11.662;2023-07-29T06:25:07;2.90;;;1.60;;
66437;SDS011;54537;47.972;11.662;2023-07-29T06:27:34;5.18;;;1.30;;
66437;SDS011;54537;47.972;11.662;2023-07-29T06:30:00;2.50;;;1.30;;
66437;SDS011;54537;47.972;11.662;2023-07-29T06:32:28;2.70;;;1.20;;
66437;SDS011;54537;47.972;11.662;2023-07-29T06:34:55;1.98;;;1.30;;
66437;SDS011;54537;47.972;11.662;2023-07-29T06:37:21;1.75;;;1.00;;
66437;SDS011;54537;47.972;11.662;2023-07-29T06:39:48;3.30;;;1.70;;
66437;SDS011;54537;47.972;11.662;2023-07-29T06:42:14;3.70;;;1.38;;
66437;SDS011;54537;47.972;11.662;2023-07-29T06:44:41;2.63;;;1.30;;
66437;SDS011;54537;47.972;11.662;2023-07-29T06:47:07;2.63;;;1.35;;
66437;SDS011;54537;47.972;11.662;2023-07-29T06:49:35;4.90;;;1.50;;
66437;SDS011;54537;47.972;11.662;2023-07-29T06:52:01;3.20;;;1.42;;
66437;SDS011;54537;47.972;11.662;2023-07-29T06:54:28;3.83;;;1.45;;
66437;SDS011;54537;47.972;11.662;2023-07-29T06:56:55;3.20;;;1.67;;
66437;SDS011;54537;47.972;11.662;2023-07-29T06:59:21;3.55;;;1.65;;
66437;SDS011;54537;47.972;11.662;2023-07-29T07:01:49;5.55;;;2.08;;
66437;SDS011;54537;47.972;11.662;2023-07-29T07:04:16;3.22;;;1.73;;
66437;SDS011;54537;47.972;11.662;2023-07-29T07:06:43;5.07;;;1.90;;
66437;SDS011;54537;47.972;11.662;2023-07-29T07:09:10;3.40;;;1.90;;
66437;SDS011;54537;47.972;11.662;2023-07-29T07:11:36;3.65;;;1.92;;
66437;SDS011;54537;47.972;11.662;2023-07-29T07:14:03;4.30;;;1.55;;
66437;SDS011;54537;47.972;11.662;2023-07-29T07:16:29;5.13;;;1.80;;
66437;SDS011;54537;47.972;11.662;2023-07-29T07:18:57;4.80;;;1.70;;
66437;SDS011;54537;47.972;11.662;2023-07-29T07:21:23;4.05;;;2.05;;
66437;SDS011;54537;47.972;11.662;2023-07-29T07:23:51;5.00;;;1.90;;
66437;SDS011;54537;47.972;11.662;2023-07-29T07:26:18;4.32;;;2.00;;
66437;SDS011;54537;47.972;11.662;2023-07-29T07:28:44;4.45;;;2.15;;
66437;SDS011;54537;47.972;11.662;2023-07-29T07:31:11;4.78;;;2.00;;
66437;SDS011;54537;47.972;11.662;2023-07-29T07:33:37;4.28;;;1.92;;
66437;SDS011;54537;47.972;11.662;2023-07-29T07:36:04;5.18;;;2.00;;
66437;SDS011;54537;47.972;11.662;2023-07-29T07:38:30;4.40;;;1.80;;
66437;SDS011;54537;47.972;11.662;2023-07-29T07:40:58;5.80;;;1.77;;
66437;SDS011;54537;47.972;11.662;2023-07-29T07:43:25;4.13;;;2.00;;
66437;SDS011;54537;47.972;11.662;2023-07-29T07:45:56;3.70;;;1.98;;
66437;SDS011;54537;47.972;11.662;2023-07-29T07:48:23;3.90;;;2.20;;
66437;SDS011;54537;47.972;11.662;2023-07-29T07:50:50;4.10;;;1.92;;
66437;SDS011;54537;47.972;11.662;2023-07-29T07:53:16;5.32;;;2.20;;
66437;SDS011;54537;47.972;11.662;2023-07-29T07:55:44;3.70;;;1.63;;
66437;SDS011;54537;47.972;11.662;2023-07-29T07:58:12;4.25;;;1.88;;
66437;SDS011;54537;47.972;11.662;2023-07-29T08:00:39;4.63;;;2.25;;
66437;SDS011;54537;47.972;11.662;2023-07-29T08:03:06;4.00;;;1.80;;
66437;SDS011;54537;47.972;11.662;2023-07-29T08:05:32;3.65;;;1.90;;
66437;SDS011;54537;47.972;11.662;2023-07-29T08:07:59;6.07;;;1.98;;
66437;SDS011;54537;47.972;11.662;2023-07-29T08:10:25;3.72;;;1.90;;
66437;SDS011;54537;47.972;11.662;2023-07-29T08:12:52;4.20;;;2.22;;
66437;SDS011;54537;47.972;11.662;2023-07-29T08:15:20;4.05;;;1.80;;
66437;SDS011;54537;47.972;11.662;2023-07-29T08:17:46;4.13;;;1.92;;
66437;SDS011;54537;47.972;11.662;2023-07-29T08:20:13;4.28;;;2.00;;
66437;SDS011;54537;47.972;11.662;2023-07-29T08:22:39;4.88;;;1.50;;
66437;SDS011;54537;47.972;11.662;2023-07-29T08:25:06;5.70;;;1.95;;
66437;SDS011;54537;47.972;11.662;2023-07-29T08:27:33;4.10;;;1.77;;
66437;SDS011;54537;47.972;11.662;2023-07-29T08:29:59;3.97;;;1.77;;
66437;SDS011;54537;47.972;11.662;2023-07-29T08:32:27;3.42;;;1.85;;
66437;SDS011;54537;47.972;11.662;2023-07-29T08:34:54;4.78;;;1.80;;
66437;SDS011;54537;47.972;11.662;2023-07-29T08:37:20;4.53;;;1.75;;
66437;SDS011;54537;47.972;11.662;2023-07-29T08:39:47;6.18;;;1.90;;
66437;SDS011;54537;47.972;11.662;2023-07-29T08:42:13;3.83;;;2.10;;
66437;SDS011;54537;47.972;11.662;2023-07-29T08:44:42;4.03;;;2.03;;
66437;SDS011;54537;47.972;11.662;2023-07-29T08:47:09;3.70;;;1.90;;
66437;SDS011;54537;47.972;11.662;2023-07-29T08:49:38;6.57;;;2.20;;
66437;SDS011;54537;47.972;11.662;2023-07-29T08:52:05;5.47;;;2.28;;
66437;SDS011;54537;47.972;11.662;2023-07-29T08:54:33;4.30;;;2.40;;
66437;SDS011;54537;47.972;11.662;2023-07-29T08:56:59;6.72;;;2.55;;
66437;SDS011;54537;47.972;11.662;2023-07-29T08:59:26;6.60;;;2.08;;
66437;SDS011;54537;47.972;11.662;2023-07-29T09:01:54;4.03;;;1.90;;
66437;SDS011;54537;47.972;11.662;2023-07-29T09:04:22;5.13;;;2.15;;
66437;SDS011;54537;47.972;11.662;2023-07-29T09:06:51;4.78;;;2.20;;
66437;SDS011;54537;47.972;11.662;2023-07-29T09:09:18;4.97;;;2.30;;
66437;SDS011;54537;47.972;11.662;2023-07-29T09:11:45;6.03;;;2.35;;
66437;SDS011;54537;47.972;11.662;2023-07-29T09:14:11;3.80;;;1.98;;
66437;SDS011;54537;47.972;11.662;2023-07-29T09:16:38;3.50;;;1.65;;
66437;SDS011;54537;47.972;11.662;2023-07-29T09:19:05;4.90;;;2.35;;
66437;SDS011;54537;47.972;11.662;2023-07-29T09:21:31;6.03;;;2.50;;
66437;SDS011;54537;47.972;11.662;2023-07-29T09:24:01;5.40;;;2.30;;
66437;SDS011;54537;47.972;11.662;2023-07-29T09:26:29;4.13;;;1.95;;
66437;SDS011;54537;47.972;11.662;2023-07-29T09:28:57;4.13;;;1.90;;
66437;SDS011;54537;47.972;11.662;2023-07-29T09:31:25;5.85;;;2.35;;
66437;SDS011;54537;47.972;11.662;2023-07-29T09:33:55;3.35;;;1.80;;
66437;SDS011;54537;47.972;11.662;2023-07-29T09:36:22;3.83;;;2.10;;
66437;SDS011;54537;47.972;11.662;2023-07-29T09:38:50;3.63;;;2.15;;
66437;SDS011;54537;47.972;11.662;2023-07-29T09:41:20;3.95;;;2.30;;
66437;SDS011;54537;47.972;11.662;2023-07-29T09:43:48;3.95;;;1.88;;
66437;SDS011;54537;47.972;11.662;2023-07-29T09:46:22;4.20;;;1.90;;
66437;SDS011;54537;47.972;11.662;2023-07-29T09:48:49;3.83;;;2.05;;
66437;SDS011;54537;47.972;11.662;2023-07-29T09:51:19;3.75;;;1.98;;
66437;SDS011;54537;47.972;11.662;2023-07-29T09:53:46;3.50;;;1.90;;
66437;SDS011;54537;47.972;11.662;2023-07-29T09:56:13;3.88;;;1.90;;
66437;SDS011;54537;47.972;11.662;2023-07-29T09:58:42;4.97;;;2.55;;
66437;SDS011;54537;47.972;11.662;2023-07-29T10:01:08;4.63;;;2.13;;
66437;SDS011;54537;47.972;11.662;2023-07-29T10:03:35;4.82;;;2.20;;
66437;SDS011;54537;47.972;11.662;2023-07-29T10:06:02;4.78;;;2.13;;
66437;SDS011;54537;47.972;11.662;2023-07-29T10:08:30;4.50;;;2.03;;
66437;SDS011;54537;47.972;11.662;2023-07-29T10:10:57;4.72;;;2.20;;
66437;SDS011;54537;47.972;11.662;2023-07-29T10:13:26;4.25;;;2.00;;
66437;SDS011;54537;47.972;11.662;2023-07-29T10:15:54;4.30;;;2.25;;
66437;SDS011;54537;47.972;11.662;2023-07-29T10:18:21;4.32;;;2.30;;
66437;SDS011;54537;47.972;11.662;2023-07-29T10:20:48;5.22;;;2.08;;
66437;SDS011;54537;47.972;11.662;2023-07-29T10:23:17;4.63;;;2.20;;
66437;SDS011;54537;47.972;11.662;2023-07-29T10:25:46;4.07;;;2.13;;
66437;SDS011;54537;47.972;11.662;2023-07-29T10:28:14;5.18;;;2.50;;
66437;SDS011;54537;47.972;11.662;2023-07-29T10:30:41;4.03;;;2.20;;
66437;SDS011;54537;47.972;11.662;2023-07-29T10:33:09;5.13;;;2.38;;
66437;SDS011;54537;47.972;11.662;2023-07-29T10:35:36;4.07;;;2.20;;
66437;SDS011;54537;47.972;11.662;2023-07-29T10:38:03;4.15;;;2.15;;
66437;SDS011;54537;47.972;11.662;2023-07-29T10:40:43;4.18;;;2.30;;
66437;SDS011;54537;47.972;11.662;2023-07-29T10:43:10;4.10;;;2.10;;
66437;SDS011;54537;47.972;11.662;2023-07-29T10:45:38;4.50;;;2.25;;
66437;SDS011;54537;47.972;11.662;2023-07-29T10:48:06;5.38;;;2.53;;
66437;SDS011;54537;47.972;11.662;2023-07-29T10:50:35;4.90;;;2.70;;
66437;SDS011;54537;47.972;11.662;2023-07-29T10:53:01;3.80;;;2.20;;
66437;SDS011;54537;47.972;11.662;2023-07-29T10:55:28;5.63;;;2.50;;
66437;SDS011;54537;47.972;11.662;2023-07-29T11:00:42;3.92;;;2.20;;
66437;SDS011;54537;47.972;11.662;2023-07-29T11:03:09;4.03;;;2.20;;
66437;SDS011;54537;47.972;11.662;2023-07-29T11:05:44;4.20;;;2.15;;
66437;SDS011;54537;47.972;11.662;2023-07-29T11:08:18;5.15;;;2.30;;
66437;SDS011;54537;47.972;11.662;2023-07-29T11:10:57;5.40;;;2.33;;
66437;SDS011;54537;47.972;11.662;2023-07-29T11:13:25;4.22;;;2.25;;
66437;SDS011;54537;47.972;11.662;2023-07-29T11:15:53;4.30;;;2.30;;
66437;SDS011;54537;47.972;11.662;2023-07-29T11:18:20;5.22;;;2.60;;
66437;SDS011;54537;47.972;11.662;2023-07-29T11:20:48;4.05;;;2.33;;
66437;SDS011;54537;47.972;11.662;2023-07-29T11:23:14;3.97;;;2.30;;
66437;SDS011;54537;47.972;11.662;2023-07-29T11:25:41;4.50;;;2.25;;
66437;SDS011;54537;47.972;11.662;2023-07-29T11:28:07;5.03;;;2.50;;
66437;SDS011;54537;47.972;11.662;2023-07-29T11:30:34;5.85;;;2.05;;
66437;SDS011;54537;47.972;11.662;2023-07-29T11:33:00;4.15;;;2.30;;
66437;SDS011;54537;47.972;11.662;2023-07-29T11:35:27;4.78;;;2.40;;
66437;SDS011;54537;47.972;11.662;2023-07-29T11:37:55;4.68;;;2.45;;
66437;SDS011;54537;47.972;11.662;2023-07-29T11:40:22;5.72;;;2.33;;
66437;SDS011;54537;47.972;11.662;2023-07-29T11:42:49;3.80;;;2.35;;
66437;SDS011;54537;47.972;11.662;2023-07-29T11:45:17;4.38;;;2.30;;
66437;SDS011;54537;47.972;11.662;2023-07-29T11:47:44;5.25;;;2.50;;
66437;SDS011;54537;47.972;11.662;2023-07-29T11:50:11;4.45;;;2.15;;
66437;SDS011;54537;47.972;11.662;2023-07-29T11:52:39;4.97;;;2.25;;
66437;SDS011;54537;47.972;11.662;2023-07-29T11:55:08;3.15;;;1.88;;
66437;SDS011;54537;47.972;11.662;2023-07-29T11:57:35;3.83;;;2.17;;
66437;SDS011;54537;47.972;11.662;2023-07-29T12:00:02;4.18;;;2.00;;
66437;SDS011;54537;47.972;11.662;2023-07-29T12:02:30;4.90;;;1.98;;
66437;SDS011;54537;47.972;11.662;2023-07-29T12:04:56;4.43;;;2.10;;
66437;SDS011;54537;47.972;11.662;2023-07-29T12:07:23;4.63;;;2.40;;
66437;SDS011;54537;47.972;11.662;2023-07-29T12:09:50;4.53;;;1.95;;
66437;SDS011;54537;47.972;11.662;2023-07-29T12:12:18;3.10;;;2.00;;
66437;SDS011;54537;47.972;11.662;2023-07-29T12:14:45;3.88;;;2.35;;
66437;SDS011;54537;47.972;11.662;2023-07-29T12:17:12;3.80;;;2.22;;
66437;SDS011;54537;47.972;11.662;2023-07-29T12:19:39;5.25;;;2.60;;
66437;SDS011;54537;47.972;11.662;2023-07-29T12:22:07;3.30;;;2.00;;
66437;SDS011;54537;47.972;11.662;2023-07-29T12:24:35;3.83;;;2.05;;
66437;SDS011;54537;47.972;11.662;2023-07-29T12:27:02;3.97;;;2.10;;
66437;SDS011;54537;47.972;11.662;2023-07-29T12:29:30;3.63;;;1.90;;
66437;SDS011;54537;47.972;11.662;2023-07-29T12:31:58;4.05;;;2.40;;
66437;SDS011;54537;47.972;11.662;2023-07-29T12:34:26;5.20;;;2.22;;
66437;SDS011;54537;47.972;11.662;2023-07-29T12:36:53;4.72;;;2.35;;
66437;SDS011;54537;47.972;11.662;2023-07-29T12:39:23;4.63;;;2.30;;
66437;SDS011;54537;47.972;11.662;2023-07-29T12:41:51;3.65;;;2.10;;
66437;SDS011;54537;47.972;11.662;2023-07-29T12:44:18;3.85;;;2.03;;
66437;SDS011;54537;47.972;11.662;2023-07-29T12:46:46;4.32;;;2.13;;
66437;SDS011;54537;47.972;11.662;2023-07-29T12:49:13;5.20;;;2.30;;
66437;SDS011;54537;47.972;11.662;2023-07-29T12:51:40;4.40;;;2.22;;
66437;SDS011;54537;47.972;11.662;2023-07-29T12:54:06;5.05;;;2.50;;
66437;SDS011;54537;47.972;11.662;2023-07-29T12:56:33;7.07;;;2.33;;
66437;SDS011;54537;47.972;11.662;2023-07-29T12:59:00;4.55;;;2.30;;
66437;SDS011;54537;47.972;11.662;2023-07-29T13:01:27;5.20;;;2.28;;
66437;SDS011;54537;47.972;11.662;2023-07-29T13:03:55;4.22;;;2.10;;
66437;SDS011;54537;47.972;11.662;2023-07-29T13:06:22;3.85;;;2.17;;
66437;SDS011;54537;47.972;11.662;2023-07-29T13:08:48;4.55;;;2.28;;
66437;SDS011;54537;47.972;11.662;2023-07-29T13:11:15;3.88;;;2.33;;
66437;SDS011;54537;47.972;11.662;2023-07-29T13:13:42;3.92;;;2.45;;
66437;SDS011;54537;47.972;11.662;2023-07-29T13:16:10;4.40;;;2.42;;
66437;SDS011;54537;47.972;11.662;2023-07-29T13:18:37;3.78;;;2.00;;
66437;SDS011;54537;47.972;11.662;2023-07-29T13:21:05;5.13;;;2.35;;
66437;SDS011;54537;47.972;11.662;2023-07-29T13:23:31;3.97;;;2.20;;
66437;SDS011;54537;47.972;11.662;2023-07-29T13:25:58;5.07;;;2.35;;
66437;SDS011;54537;47.972;11.662;2023-07-29T13:28:24;5.15;;;2.10;;
66437;SDS011;54537;47.972;11.662;2023-07-29T13:30:51;6.40;;;2.42;;
66437;SDS011;54537;47.972;11.662;2023-07-29T13:33:17;5.97;;;2.08;;
66437;SDS011;54537;47.972;11.662;2023-07-29T13:35:44;4.75;;;2.30;;
66437;SDS011;54537;47.972;11.662;2023-07-29T13:38:11;4.75;;;2.72;;
66437;SDS011;54537;47.972;11.662;2023-07-29T13:40:38;4.05;;;2.20;;
66437;SDS011;54537;47.972;11.662;2023-07-29T13:43:04;4.00;;;1.90;;
66437;SDS011;54537;47.972;11.662;2023-07-29T13:45:31;4.07;;;2.10;;
66437;SDS011;54537;47.972;11.662;2023-07-29T13:47:57;2.72;;;1.77;;
66437;SDS011;54537;47.972;11.662;2023-07-29T13:50:24;4.70;;;2.10;;
66437;SDS011;54537;47.972;11.662;2023-07-29T13:52:50;3.03;;;1.70;;
66437;SDS011;54537;47.972;11.662;2023-07-29T13:55:18;4.28;;;1.70;;
66437;SDS011;54537;47.972;11.662;2023-07-29T13:57:45;3.67;;;1.92;;
66437;SDS011;54537;47.972;11.662;2023-07-29T14:00:12;4.97;;;2.10;;
66437;SDS011;54537;47.972;11.662;2023-07-29T14:02:39;3.70;;;1.65;;
66437;SDS011;54537;47.972;11.662;2023-07-29T14:05:05;2.45;;;1.50;;
66437;SDS011;54537;47.972;11.662;2023-07-29T14:07:32;3.15;;;1.67;;
66437;SDS011;54537;47.972;11.662;2023-07-29T14:09:59;4.60;;;1.70;;
66437;SDS011;54537;47.972;11.662;2023-07-29T14:12:27;3.05;;;1.55;;
66437;SDS011;54537;47.972;11.662;2023-07-29T14:14:53;4.30;;;2.15;;
66437;SDS011;54537;47.972;11.662;2023-07-29T14:17:20;2.83;;;1.50;;
66437;SDS011;54537;47.972;11.662;2023-07-29T14:19:46;3.42;;;1.73;;
66437;SDS011;54537;47.972;11.662;2023-07-29T14:22:13;3.17;;;1.70;;
66437;SDS011;54537;47.972;11.662;2023-07-29T14:24:39;6.85;;;2.35;;
66437;SDS011;54537;47.972;11.662;2023-07-29T14:27:06;3.50;;;1.80;;
66437;SDS011;54537;47.972;11.662;2023-07-29T14:29:34;3.33;;;1.67;;
66437;SDS011;54537;47.972;11.662;2023-07-29T14:32:00;3.65;;;1.80;;
66437;SDS011;54537;47.972;11.662;2023-07-29T14:34:27;3.05;;;1.60;;
66437;SDS011;54537;47.972;11.662;2023-07-29T14:36:54;4.55;;;1.83;;